sensor_id;sensor_type;location;lat;lon;timestamp;P1;durP1;ratioP1;P2;durP2;ratioP2
10410;SDS011;5251;52.112;8.606;2023-11-21T00:02:20;11.85;;;8.45;;
10410;SDS011;5251;52.112;8.606;2023-11-21T00:04:47;14.93;;;10.23;;
10410;SDS011;5251;52.112;8.606;2023-11-21T00:07:13;14.18;;;10.35;;
10410;SDS011;5251;52.112;8.606;2023-11-21T00:09:39;14.15;;;9.45;;
10410;SDS011;5251;52.112;8.606;2023-11-21T00:12:06;14.63;;;10.30;;
10410;SDS011;5251;52.112;8.606;2023-11-21T00:14:35;12.98;;;9.20;;
10410;SDS011;5251;52.112;8.606;2023-11-21T00:17:01;11.35;;;9.05;;
10410;SDS011;5251;52.112;8.606;2023-11-21T00:19:27;10.27;;;7.63;;
10410;SDS011;5251;52.112;8.606;2023-11-21T00:21:53;8.82;;;7.40;;
10410;SDS011;5251;52.112;8.606;2023-11-21T00:24:18;10.63;;;7.82;;
10410;SDS011;5251;52.112;8.606;2023-11-21T00:26:44;13.70;;;8.82;;
10410;SDS011;5251;52.112;8.606;2023-11-21T00:29:10;11.50;;;8.38;;
10410;SDS011;5251;52.112;8.606;2023-11-21T00:31:35;11.57;;;8.63;;
10410;SDS011;5251;52.112;8.606;2023-11-21T00:34:04;12.38;;;8.80;;
10410;SDS011;5251;52.112;8.606;2023-11-21T00:36:31;18.50;;;10.65;;
10410;SDS011;5251;52.112;8.606;2023-11-21T00:38:57;14.15;;;9.48;;
10410;SDS011;5251;52.112;8.606;2023-11-21T00:41:23;16.30;;;9.95;;
10410;SDS011;5251;52.112;8.606;2023-11-21T00:43:48;20.35;;;10.90;;
10410;SDS011;5251;52.112;8.606;2023-11-21T00:46:14;19.13;;;11.27;;
10410;SDS011;5251;52.112;8.606;2023-11-21T00:48:39;18.60;;;11.70;;
10410;SDS011;5251;52.112;8.606;2023-11-21T00:51:05;18.00;;;11.38;;
10410;SDS011;5251;52.112;8.606;2023-11-21T00:53:31;18.80;;;11.77;;
10410;SDS011;5251;52.112;8.606;2023-11-21T00:55:57;18.15;;;11.27;;
10410;SDS011;5251;52.112;8.606;2023-11-21T00:58:25;20.25;;;10.88;;
10410;SDS011;5251;52.112;8.606;2023-11-21T01:00:51;22.95;;;11.43;;
10410;SDS011;5251;52.112;8.606;2023-11-21T01:03:17;20.20;;;10.90;;
10410;SDS011;5251;52.112;8.606;2023-11-21T01:05:43;18.58;;;11.70;;
10410;SDS011;5251;52.112;8.606;2023-11-21T01:08:10;18.23;;;11.07;;
10410;SDS011;5251;52.112;8.606;2023-11-21T01:10:36;17.38;;;11.00;;
10410;SDS011;5251;52.112;8.606;2023-11-21T01:13:01;16.95;;;10.82;;
10410;SDS011;5251;52.112;8.606;2023-11-21T01:15:30;16.90;;;10.70;;
10410;SDS011;5251;52.112;8.606;2023-11-21T01:17:56;19.98;;;11.05;;
10410;SDS011;5251;52.112;8.606;2023-11-21T01:20:22;16.42;;;11.02;;
10410;SDS011;5251;52.112;8.606;2023-11-21T01:22:47;16.55;;;11.48;;
10410;SDS011;5251;52.112;8.606;2023-11-21T01:25:14;19.20;;;11.52;;
10410;SDS011;5251;52.112;8.606;2023-11-21T01:27:41;17.33;;;11.10;;
10410;SDS011;5251;52.112;8.606;2023-11-21T01:30:07;19.95;;;13.02;;
10410;SDS011;5251;52.112;8.606;2023-11-21T01:32:35;20.75;;;12.18;;
10410;SDS011;5251;52.112;8.606;2023-11-21T01:35:01;20.98;;;12.27;;
10410;SDS011;5251;52.112;8.606;2023-11-21T01:37:27;16.65;;;11.43;;
10410;SDS011;5251;52.112;8.606;2023-11-21T01:39:53;19.92;;;12.10;;
10410;SDS011;5251;52.112;8.606;2023-11-21T01:42:22;16.33;;;11.02;;
10410;SDS011;5251;52.112;8.606;2023-11-21T01:44:47;17.48;;;11.32;;
10410;SDS011;5251;52.112;8.606;2023-11-21T01:47:14;16.40;;;11.43;;
10410;SDS011;5251;52.112;8.606;2023-11-21T01:49:43;22.58;;;12.60;;
10410;SDS011;5251;52.112;8.606;2023-11-21T01:52:10;21.20;;;12.75;;
10410;SDS011;5251;52.112;8.606;2023-11-21T01:54:36;20.90;;;12.35;;
10410;SDS011;5251;52.112;8.606;2023-11-21T01:57:03;20.52;;;12.65;;
10410;SDS011;5251;52.112;8.606;2023-11-21T01:59:33;18.77;;;12.35;;
10410;SDS011;5251;52.112;8.606;2023-11-21T02:02:05;17.95;;;11.80;;
10410;SDS011;5251;52.112;8.606;2023-11-21T02:04:35;17.75;;;11.63;;
10410;SDS011;5251;52.112;8.606;2023-11-21T02:07:04;20.52;;;12.45;;
10410;SDS011;5251;52.112;8.606;2023-11-21T02:09:33;20.83;;;12.60;;
10410;SDS011;5251;52.112;8.606;2023-11-21T02:11:59;14.90;;;10.75;;
10410;SDS011;5251;52.112;8.606;2023-11-21T02:14:25;19.13;;;11.52;;
10410;SDS011;5251;52.112;8.606;2023-11-21T02:16:53;18.67;;;11.20;;
10410;SDS011;5251;52.112;8.606;2023-11-21T02:19:19;17.38;;;11.32;;
10410;SDS011;5251;52.112;8.606;2023-11-21T02:21:49;19.20;;;10.52;;
10410;SDS011;5251;52.112;8.606;2023-11-21T02:24:21;17.48;;;11.48;;
10410;SDS011;5251;52.112;8.606;2023-11-21T02:26:50;15.27;;;9.95;;
10410;SDS011;5251;52.112;8.606;2023-11-21T02:29:17;18.52;;;11.20;;
10410;SDS011;5251;52.112;8.606;2023-11-21T02:31:44;19.88;;;10.70;;
10410;SDS011;5251;52.112;8.606;2023-11-21T02:34:16;18.92;;;11.00;;
10410;SDS011;5251;52.112;8.606;2023-11-21T02:36:43;17.90;;;10.45;;
10410;SDS011;5251;52.112;8.606;2023-11-21T02:39:09;16.48;;;10.50;;
10410;SDS011;5251;52.112;8.606;2023-11-21T02:41:36;18.48;;;10.85;;
10410;SDS011;5251;52.112;8.606;2023-11-21T02:44:03;17.73;;;10.90;;
10410;SDS011;5251;52.112;8.606;2023-11-21T02:46:31;19.40;;;11.32;;
10410;SDS011;5251;52.112;8.606;2023-11-21T02:48:59;19.60;;;11.20;;
10410;SDS011;5251;52.112;8.606;2023-11-21T02:51:25;21.83;;;12.25;;
10410;SDS011;5251;52.112;8.606;2023-11-21T02:53:50;16.27;;;10.48;;
10410;SDS011;5251;52.112;8.606;2023-11-21T02:56:16;19.70;;;11.13;;
10410;SDS011;5251;52.112;8.606;2023-11-21T02:58:42;22.08;;;11.15;;
10410;SDS011;5251;52.112;8.606;2023-11-21T03:01:09;17.02;;;10.68;;
10410;SDS011;5251;52.112;8.606;2023-11-21T03:03:35;17.00;;;10.57;;
10410;SDS011;5251;52.112;8.606;2023-11-21T03:06:05;19.23;;;11.85;;
10410;SDS011;5251;52.112;8.606;2023-11-21T03:08:31;23.60;;;11.88;;
10410;SDS011;5251;52.112;8.606;2023-11-21T03:10:57;17.70;;;12.00;;
10410;SDS011;5251;52.112;8.606;2023-11-21T03:13:23;16.92;;;9.82;;
10410;SDS011;5251;52.112;8.606;2023-11-21T03:15:48;19.92;;;11.43;;
10410;SDS011;5251;52.112;8.606;2023-11-21T03:18:14;20.95;;;11.43;;
10410;SDS011;5251;52.112;8.606;2023-11-21T03:20:40;18.60;;;11.32;;
10410;SDS011;5251;52.112;8.606;2023-11-21T03:23:06;21.65;;;11.93;;
10410;SDS011;5251;52.112;8.606;2023-11-21T03:25:32;26.27;;;13.25;;
10410;SDS011;5251;52.112;8.606;2023-11-21T03:27:57;22.00;;;13.02;;
10410;SDS011;5251;52.112;8.606;2023-11-21T03:30:23;24.63;;;13.55;;
10410;SDS011;5251;52.112;8.606;2023-11-21T03:32:48;28.35;;;14.18;;
10410;SDS011;5251;52.112;8.606;2023-11-21T03:35:14;25.02;;;13.57;;
10410;SDS011;5251;52.112;8.606;2023-11-21T03:37:40;25.58;;;13.70;;
10410;SDS011;5251;52.112;8.606;2023-11-21T03:40:07;26.08;;;13.35;;
10410;SDS011;5251;52.112;8.606;2023-11-21T03:42:37;27.10;;;13.50;;
10410;SDS011;5251;52.112;8.606;2023-11-21T03:45:04;24.92;;;12.88;;
10410;SDS011;5251;52.112;8.606;2023-11-21T03:47:30;22.42;;;12.95;;
10410;SDS011;5251;52.112;8.606;2023-11-21T03:49:55;23.02;;;12.25;;
10410;SDS011;5251;52.112;8.606;2023-11-21T03:52:21;21.75;;;11.70;;
10410;SDS011;5251;52.112;8.606;2023-11-21T03:54:46;22.83;;;12.07;;
10410;SDS011;5251;52.112;8.606;2023-11-21T03:57:12;22.08;;;11.32;;
10410;SDS011;5251;52.112;8.606;2023-11-21T03:59:41;21.40;;;11.40;;
10410;SDS011;5251;52.112;8.606;2023-11-21T04:02:07;23.27;;;12.20;;
10410;SDS011;5251;52.112;8.606;2023-11-21T04:04:33;18.77;;;10.82;;
10410;SDS011;5251;52.112;8.606;2023-11-21T04:06:59;18.60;;;9.98;;
10410;SDS011;5251;52.112;8.606;2023-11-21T04:09:25;18.48;;;10.50;;
10410;SDS011;5251;52.112;8.606;2023-11-21T04:11:51;17.73;;;9.55;;
10410;SDS011;5251;52.112;8.606;2023-11-21T04:14:17;20.88;;;9.98;;
10410;SDS011;5251;52.112;8.606;2023-11-21T04:16:42;18.10;;;10.25;;
10410;SDS011;5251;52.112;8.606;2023-11-21T04:19:08;19.58;;;11.00;;
10410;SDS011;5251;52.112;8.606;2023-11-21T04:21:39;21.17;;;11.35;;
10410;SDS011;5251;52.112;8.606;2023-11-21T04:24:05;20.15;;;9.90;;
10410;SDS011;5251;52.112;8.606;2023-11-21T04:26:31;17.95;;;9.50;;
10410;SDS011;5251;52.112;8.606;2023-11-21T04:28:57;15.98;;;9.57;;
10410;SDS011;5251;52.112;8.606;2023-11-21T04:31:22;19.38;;;9.75;;
10410;SDS011;5251;52.112;8.606;2023-11-21T04:33:48;20.98;;;10.60;;
10410;SDS011;5251;52.112;8.606;2023-11-21T04:36:14;22.45;;;11.25;;
10410;SDS011;5251;52.112;8.606;2023-11-21T04:38:39;20.27;;;10.18;;
10410;SDS011;5251;52.112;8.606;2023-11-21T04:41:05;18.95;;;10.82;;
10410;SDS011;5251;52.112;8.606;2023-11-21T04:43:31;19.25;;;10.38;;
10410;SDS011;5251;52.112;8.606;2023-11-21T04:45:57;17.90;;;9.88;;
10410;SDS011;5251;52.112;8.606;2023-11-21T04:48:22;16.10;;;9.70;;
10410;SDS011;5251;52.112;8.606;2023-11-21T04:50:48;16.95;;;10.35;;
10410;SDS011;5251;52.112;8.606;2023-11-21T04:53:14;19.65;;;9.80;;
10410;SDS011;5251;52.112;8.606;2023-11-21T04:55:40;18.27;;;9.55;;
10410;SDS011;5251;52.112;8.606;2023-11-21T04:58:06;16.77;;;9.43;;
10410;SDS011;5251;52.112;8.606;2023-11-21T05:00:33;16.30;;;9.40;;
10410;SDS011;5251;52.112;8.606;2023-11-21T05:02:59;18.60;;;9.32;;
10410;SDS011;5251;52.112;8.606;2023-11-21T05:05:26;15.77;;;9.77;;
10410;SDS011;5251;52.112;8.606;2023-11-21T05:07:52;17.90;;;10.07;;
10410;SDS011;5251;52.112;8.606;2023-11-21T05:10:18;17.52;;;10.38;;
10410;SDS011;5251;52.112;8.606;2023-11-21T05:12:44;16.30;;;10.50;;
10410;SDS011;5251;52.112;8.606;2023-11-21T05:15:13;17.08;;;9.85;;
10410;SDS011;5251;52.112;8.606;2023-11-21T05:17:40;15.88;;;10.88;;
10410;SDS011;5251;52.112;8.606;2023-11-21T05:20:15;18.25;;;10.65;;
10410;SDS011;5251;52.112;8.606;2023-11-21T05:22:45;16.90;;;10.27;;
10410;SDS011;5251;52.112;8.606;2023-11-21T05:25:12;17.70;;;10.20;;
10410;SDS011;5251;52.112;8.606;2023-11-21T05:27:37;18.55;;;10.82;;
10410;SDS011;5251;52.112;8.606;2023-11-21T05:30:04;16.85;;;10.00;;
10410;SDS011;5251;52.112;8.606;2023-11-21T05:32:30;16.58;;;10.15;;
10410;SDS011;5251;52.112;8.606;2023-11-21T05:34:56;15.63;;;9.70;;
10410;SDS011;5251;52.112;8.606;2023-11-21T05:37:22;17.45;;;10.23;;
10410;SDS011;5251;52.112;8.606;2023-11-21T05:39:52;18.65;;;10.73;;
10410;SDS011;5251;52.112;8.606;2023-11-21T05:42:18;17.88;;;10.65;;
10410;SDS011;5251;52.112;8.606;2023-11-21T05:44:45;17.13;;;10.35;;
10410;SDS011;5251;52.112;8.606;2023-11-21T05:47:11;19.48;;;11.90;;
10410;SDS011;5251;52.112;8.606;2023-11-21T05:49:38;18.85;;;10.70;;
10410;SDS011;5251;52.112;8.606;2023-11-21T05:52:04;16.17;;;10.35;;
10410;SDS011;5251;52.112;8.606;2023-11-21T05:54:30;17.45;;;10.50;;
10410;SDS011;5251;52.112;8.606;2023-11-21T05:56:56;16.23;;;9.73;;
10410;SDS011;5251;52.112;8.606;2023-11-21T05:59:22;16.73;;;10.70;;
10410;SDS011;5251;52.112;8.606;2023-11-21T06:01:48;17.23;;;11.05;;
10410;SDS011;5251;52.112;8.606;2023-11-21T06:04:14;16.13;;;10.35;;
10410;SDS011;5251;52.112;8.606;2023-11-21T06:06:39;18.30;;;10.90;;
10410;SDS011;5251;52.112;8.606;2023-11-21T06:09:05;16.80;;;10.68;;
10410;SDS011;5251;52.112;8.606;2023-11-21T06:11:33;15.23;;;10.20;;
10410;SDS011;5251;52.112;8.606;2023-11-21T06:13:59;16.92;;;10.85;;
10410;SDS011;5251;52.112;8.606;2023-11-21T06:16:25;19.73;;;11.48;;
10410;SDS011;5251;52.112;8.606;2023-11-21T06:18:50;19.70;;;11.57;;
10410;SDS011;5251;52.112;8.606;2023-11-21T06:21:16;18.63;;;9.93;;
10410;SDS011;5251;52.112;8.606;2023-11-21T06:23:43;17.15;;;11.02;;
10410;SDS011;5251;52.112;8.606;2023-11-21T06:26:08;20.38;;;11.48;;
10410;SDS011;5251;52.112;8.606;2023-11-21T06:28:34;19.08;;;11.48;;
10410;SDS011;5251;52.112;8.606;2023-11-21T06:31:01;19.67;;;11.90;;
10410;SDS011;5251;52.112;8.606;2023-11-21T06:33:30;17.90;;;11.32;;
10410;SDS011;5251;52.112;8.606;2023-11-21T06:35:56;18.95;;;11.48;;
10410;SDS011;5251;52.112;8.606;2023-11-21T06:38:22;18.42;;;11.23;;
10410;SDS011;5251;52.112;8.606;2023-11-21T06:40:47;17.25;;;11.07;;
10410;SDS011;5251;52.112;8.606;2023-11-21T06:43:13;19.85;;;11.20;;
10410;SDS011;5251;52.112;8.606;2023-11-21T06:45:39;21.73;;;12.68;;
10410;SDS011;5251;52.112;8.606;2023-11-21T06:48:04;19.85;;;12.15;;
10410;SDS011;5251;52.112;8.606;2023-11-21T06:50:30;17.98;;;11.13;;
10410;SDS011;5251;52.112;8.606;2023-11-21T06:52:56;20.92;;;12.25;;
10410;SDS011;5251;52.112;8.606;2023-11-21T06:55:21;21.30;;;13.45;;
10410;SDS011;5251;52.112;8.606;2023-11-21T06:57:47;18.50;;;11.68;;
10410;SDS011;5251;52.112;8.606;2023-11-21T07:00:13;20.48;;;13.45;;
10410;SDS011;5251;52.112;8.606;2023-11-21T07:02:42;21.45;;;13.15;;
10410;SDS011;5251;52.112;8.606;2023-11-21T07:05:08;22.67;;;13.15;;
10410;SDS011;5251;52.112;8.606;2023-11-21T07:07:34;23.90;;;13.80;;
10410;SDS011;5251;52.112;8.606;2023-11-21T07:10:01;25.80;;;14.13;;
10410;SDS011;5251;52.112;8.606;2023-11-21T07:12:28;21.45;;;13.52;;
10410;SDS011;5251;52.112;8.606;2023-11-21T07:14:56;24.60;;;13.93;;
10410;SDS011;5251;52.112;8.606;2023-11-21T07:17:21;23.10;;;13.23;;
10410;SDS011;5251;52.112;8.606;2023-11-21T07:19:48;22.73;;;14.38;;
10410;SDS011;5251;52.112;8.606;2023-11-21T07:22:14;21.73;;;13.95;;
10410;SDS011;5251;52.112;8.606;2023-11-21T07:24:46;24.83;;;14.85;;
10410;SDS011;5251;52.112;8.606;2023-11-21T07:27:13;26.00;;;14.30;;
10410;SDS011;5251;52.112;8.606;2023-11-21T07:29:39;21.23;;;13.25;;
10410;SDS011;5251;52.112;8.606;2023-11-21T07:32:05;25.52;;;13.52;;
10410;SDS011;5251;52.112;8.606;2023-11-21T07:34:31;21.95;;;12.93;;
10410;SDS011;5251;52.112;8.606;2023-11-21T07:36:57;24.52;;;14.73;;
10410;SDS011;5251;52.112;8.606;2023-11-21T07:39:22;26.08;;;13.98;;
10410;SDS011;5251;52.112;8.606;2023-11-21T07:41:48;26.70;;;14.00;;
10410;SDS011;5251;52.112;8.606;2023-11-21T07:44:15;26.73;;;13.93;;
10410;SDS011;5251;52.112;8.606;2023-11-21T07:46:42;26.27;;;15.00;;
10410;SDS011;5251;52.112;8.606;2023-11-21T07:49:08;24.70;;;13.60;;
10410;SDS011;5251;52.112;8.606;2023-11-21T07:51:34;22.65;;;13.70;;
10410;SDS011;5251;52.112;8.606;2023-11-21T07:53:59;29.15;;;14.88;;
10410;SDS011;5251;52.112;8.606;2023-11-21T07:56:25;24.05;;;13.60;;
10410;SDS011;5251;52.112;8.606;2023-11-21T07:58:51;23.48;;;12.98;;
10410;SDS011;5251;52.112;8.606;2023-11-21T08:01:17;21.88;;;12.70;;
10410;SDS011;5251;52.112;8.606;2023-11-21T08:03:42;21.38;;;11.65;;
10410;SDS011;5251;52.112;8.606;2023-11-21T08:06:09;19.27;;;11.80;;
10410;SDS011;5251;52.112;8.606;2023-11-21T08:08:34;18.15;;;11.05;;
10410;SDS011;5251;52.112;8.606;2023-11-21T08:11:00;17.38;;;10.73;;
10410;SDS011;5251;52.112;8.606;2023-11-21T08:13:26;19.80;;;11.57;;
10410;SDS011;5251;52.112;8.606;2023-11-21T08:15:56;18.33;;;10.50;;
10410;SDS011;5251;52.112;8.606;2023-11-21T08:18:26;17.40;;;10.63;;
10410;SDS011;5251;52.112;8.606;2023-11-21T08:20:52;16.92;;;10.27;;
10410;SDS011;5251;52.112;8.606;2023-11-21T08:23:20;16.98;;;10.65;;
10410;SDS011;5251;52.112;8.606;2023-11-21T08:25:45;15.73;;;10.30;;
10410;SDS011;5251;52.112;8.606;2023-11-21T08:28:12;15.57;;;9.30;;
10410;SDS011;5251;52.112;8.606;2023-11-21T08:30:41;11.93;;;8.32;;
10410;SDS011;5251;52.112;8.606;2023-11-21T08:33:07;13.02;;;7.97;;
10410;SDS011;5251;52.112;8.606;2023-11-21T08:35:33;11.68;;;7.68;;
10410;SDS011;5251;52.112;8.606;2023-11-21T08:37:59;10.77;;;7.40;;
10410;SDS011;5251;52.112;8.606;2023-11-21T08:40:25;11.73;;;7.18;;
10410;SDS011;5251;52.112;8.606;2023-11-21T08:42:51;8.93;;;6.55;;
10410;SDS011;5251;52.112;8.606;2023-11-21T08:45:18;11.70;;;7.10;;
10410;SDS011;5251;52.112;8.606;2023-11-21T08:47:44;9.57;;;6.63;;
10410;SDS011;5251;52.112;8.606;2023-11-21T08:50:10;11.70;;;7.75;;
10410;SDS011;5251;52.112;8.606;2023-11-21T08:52:37;11.60;;;7.80;;
10410;SDS011;5251;52.112;8.606;2023-11-21T08:55:04;9.80;;;6.75;;
10410;SDS011;5251;52.112;8.606;2023-11-21T08:57:35;10.50;;;7.65;;
10410;SDS011;5251;52.112;8.606;2023-11-21T09:00:05;9.82;;;7.20;;
10410;SDS011;5251;52.112;8.606;2023-11-21T09:02:33;9.00;;;5.72;;
10410;SDS011;5251;52.112;8.606;2023-11-21T09:04:59;9.18;;;6.47;;
10410;SDS011;5251;52.112;8.606;2023-11-21T09:07:28;7.60;;;5.97;;
10410;SDS011;5251;52.112;8.606;2023-11-21T09:09:54;8.95;;;6.95;;
10410;SDS011;5251;52.112;8.606;2023-11-21T09:12:20;8.07;;;6.13;;
10410;SDS011;5251;52.112;8.606;2023-11-21T09:14:45;7.93;;;6.35;;
10410;SDS011;5251;52.112;8.606;2023-11-21T09:17:11;7.22;;;6.22;;
10410;SDS011;5251;52.112;8.606;2023-11-21T09:19:40;9.05;;;6.88;;
10410;SDS011;5251;52.112;8.606;2023-11-21T09:22:06;8.63;;;6.57;;
10410;SDS011;5251;52.112;8.606;2023-11-21T09:24:32;11.38;;;7.20;;
10410;SDS011;5251;52.112;8.606;2023-11-21T09:26:59;9.65;;;7.55;;
10410;SDS011;5251;52.112;8.606;2023-11-21T09:29:28;10.20;;;7.10;;
10410;SDS011;5251;52.112;8.606;2023-11-21T09:31:54;9.90;;;6.78;;
10410;SDS011;5251;52.112;8.606;2023-11-21T09:34:22;8.90;;;6.50;;
10410;SDS011;5251;52.112;8.606;2023-11-21T09:36:48;9.82;;;6.80;;
10410;SDS011;5251;52.112;8.606;2023-11-21T09:39:14;7.93;;;6.38;;
10410;SDS011;5251;52.112;8.606;2023-11-21T09:44:16;7.63;;;5.97;;
10410;SDS011;5251;52.112;8.606;2023-11-21T09:46:43;9.27;;;6.47;;
10410;SDS011;5251;52.112;8.606;2023-11-21T09:49:18;7.78;;;5.72;;
10410;SDS011;5251;52.112;8.606;2023-11-21T09:51:47;9.73;;;6.32;;
10410;SDS011;5251;52.112;8.606;2023-11-21T09:54:15;9.73;;;6.22;;
10410;SDS011;5251;52.112;8.606;2023-11-21T09:56:42;7.88;;;6.82;;
10410;SDS011;5251;52.112;8.606;2023-11-21T09:59:10;8.95;;;6.75;;
10410;SDS011;5251;52.112;8.606;2023-11-21T10:01:38;5.95;;;5.18;;
10410;SDS011;5251;52.112;8.606;2023-11-21T10:04:05;7.32;;;5.28;;
10410;SDS011;5251;52.112;8.606;2023-11-21T10:06:36;5.55;;;5.00;;
10410;SDS011;5251;52.112;8.606;2023-11-21T10:09:11;6.97;;;4.90;;
10410;SDS011;5251;52.112;8.606;2023-11-21T10:11:42;6.32;;;5.07;;
10410;SDS011;5251;52.112;8.606;2023-11-21T10:14:12;5.45;;;4.88;;
10410;SDS011;5251;52.112;8.606;2023-11-21T10:16:39;4.50;;;4.07;;
10410;SDS011;5251;52.112;8.606;2023-11-21T10:19:09;6.45;;;4.35;;
10410;SDS011;5251;52.112;8.606;2023-11-21T10:21:35;4.70;;;4.03;;
10410;SDS011;5251;52.112;8.606;2023-11-21T10:24:03;6.53;;;4.10;;
10410;SDS011;5251;52.112;8.606;2023-11-21T10:26:29;6.45;;;4.22;;
10410;SDS011;5251;52.112;8.606;2023-11-21T10:28:59;5.10;;;4.20;;
10410;SDS011;5251;52.112;8.606;2023-11-21T10:31:31;5.97;;;4.25;;
10410;SDS011;5251;52.112;8.606;2023-11-21T10:34:16;5.65;;;4.43;;
10410;SDS011;5251;52.112;8.606;2023-11-21T10:36:43;4.57;;;3.72;;
10410;SDS011;5251;52.112;8.606;2023-11-21T10:39:09;7.20;;;4.30;;
10410;SDS011;5251;52.112;8.606;2023-11-21T10:41:38;7.40;;;4.38;;
10410;SDS011;5251;52.112;8.606;2023-11-21T10:44:04;6.43;;;4.63;;
10410;SDS011;5251;52.112;8.606;2023-11-21T10:46:32;6.50;;;4.18;;
10410;SDS011;5251;52.112;8.606;2023-11-21T10:48:58;4.50;;;3.90;;
10410;SDS011;5251;52.112;8.606;2023-11-21T10:51:25;4.72;;;3.95;;
10410;SDS011;5251;52.112;8.606;2023-11-21T10:53:53;4.30;;;3.72;;
10410;SDS011;5251;52.112;8.606;2023-11-21T10:56:19;5.97;;;4.20;;
10410;SDS011;5251;52.112;8.606;2023-11-21T10:58:49;5.20;;;4.15;;
10410;SDS011;5251;52.112;8.606;2023-11-21T11:01:16;5.00;;;4.00;;
10410;SDS011;5251;52.112;8.606;2023-11-21T11:03:44;4.88;;;3.92;;
10410;SDS011;5251;52.112;8.606;2023-11-21T11:06:09;5.82;;;4.18;;
10410;SDS011;5251;52.112;8.606;2023-11-21T11:08:37;4.78;;;3.95;;
10410;SDS011;5251;52.112;8.606;2023-11-21T11:11:05;4.65;;;4.13;;
10410;SDS011;5251;52.112;8.606;2023-11-21T11:13:31;5.97;;;4.78;;
10410;SDS011;5251;52.112;8.606;2023-11-21T11:16:00;5.55;;;4.35;;
10410;SDS011;5251;52.112;8.606;2023-11-21T11:18:27;6.28;;;4.90;;
10410;SDS011;5251;52.112;8.606;2023-11-21T11:20:54;6.18;;;5.10;;
10410;SDS011;5251;52.112;8.606;2023-11-21T11:26:46;8.38;;;5.97;;
10410;SDS011;5251;52.112;8.606;2023-11-21T11:34:47;8.02;;;6.30;;
10410;SDS011;5251;52.112;8.606;2023-11-21T11:37:34;7.68;;;6.00;;
10410;SDS011;5251;52.112;8.606;2023-11-21T11:40:00;7.55;;;5.60;;
10410;SDS011;5251;52.112;8.606;2023-11-21T11:42:26;8.73;;;6.45;;
10410;SDS011;5251;52.112;8.606;2023-11-21T11:44:52;9.10;;;6.63;;
10410;SDS011;5251;52.112;8.606;2023-11-21T11:47:28;12.38;;;8.45;;
10410;SDS011;5251;52.112;8.606;2023-11-21T11:50:05;9.15;;;6.32;;
10410;SDS011;5251;52.112;8.606;2023-11-21T11:52:40;8.88;;;6.82;;
10410;SDS011;5251;52.112;8.606;2023-11-21T11:55:07;7.53;;;6.35;;
10410;SDS011;5251;52.112;8.606;2023-11-21T11:57:37;7.50;;;6.65;;
10410;SDS011;5251;52.112;8.606;2023-11-21T12:02:54;7.80;;;6.20;;
10410;SDS011;5251;52.112;8.606;2023-11-21T12:05:25;9.25;;;6.97;;
10410;SDS011;5251;52.112;8.606;2023-11-21T12:07:54;13.23;;;9.38;;
10410;SDS011;5251;52.112;8.606;2023-11-21T12:12:50;7.80;;;6.47;;
10410;SDS011;5251;52.112;8.606;2023-11-21T12:15:17;9.02;;;6.60;;
10410;SDS011;5251;52.112;8.606;2023-11-21T12:17:44;9.55;;;6.57;;
10410;SDS011;5251;52.112;8.606;2023-11-21T12:20:11;8.38;;;6.75;;
10410;SDS011;5251;52.112;8.606;2023-11-21T12:22:45;13.63;;;6.97;;
10410;SDS011;5251;52.112;8.606;2023-11-21T12:25:13;8.50;;;6.65;;
10410;SDS011;5251;52.112;8.606;2023-11-21T12:27:41;9.18;;;6.80;;
10410;SDS011;5251;52.112;8.606;2023-11-21T12:30:07;10.38;;;7.05;;
10410;SDS011;5251;52.112;8.606;2023-11-21T12:32:38;10.77;;;6.18;;
10410;SDS011;5251;52.112;8.606;2023-11-21T12:35:08;7.60;;;5.65;;
10410;SDS011;5251;52.112;8.606;2023-11-21T12:37:35;6.88;;;5.88;;
10410;SDS011;5251;52.112;8.606;2023-11-21T12:40:02;8.10;;;6.63;;
10410;SDS011;5251;52.112;8.606;2023-11-21T12:42:29;8.65;;;5.80;;
10410;SDS011;5251;52.112;8.606;2023-11-21T12:47:57;6.97;;;5.30;;
10410;SDS011;5251;52.112;8.606;2023-11-21T12:50:29;8.52;;;5.40;;
10410;SDS011;5251;52.112;8.606;2023-11-21T12:53:05;5.35;;;4.38;;
10410;SDS011;5251;52.112;8.606;2023-11-21T12:55:33;5.65;;;4.80;;
10410;SDS011;5251;52.112;8.606;2023-11-21T12:58:03;5.43;;;4.40;;
10410;SDS011;5251;52.112;8.606;2023-11-21T13:03:06;5.72;;;4.68;;
10410;SDS011;5251;52.112;8.606;2023-11-21T13:05:34;6.05;;;4.95;;
10410;SDS011;5251;52.112;8.606;2023-11-21T13:08:04;5.05;;;4.45;;
10410;SDS011;5251;52.112;8.606;2023-11-21T13:10:38;4.80;;;4.30;;
10410;SDS011;5251;52.112;8.606;2023-11-21T13:13:07;6.38;;;4.88;;
10410;SDS011;5251;52.112;8.606;2023-11-21T13:15:35;6.78;;;5.15;;
10410;SDS011;5251;52.112;8.606;2023-11-21T13:18:05;7.25;;;5.10;;
10410;SDS011;5251;52.112;8.606;2023-11-21T13:20:31;5.95;;;4.68;;
10410;SDS011;5251;52.112;8.606;2023-11-21T13:22:58;6.15;;;4.85;;
10410;SDS011;5251;52.112;8.606;2023-11-21T13:25:25;5.72;;;4.78;;
10410;SDS011;5251;52.112;8.606;2023-11-21T13:27:55;4.97;;;4.47;;
10410;SDS011;5251;52.112;8.606;2023-11-21T13:30:22;5.25;;;4.55;;
10410;SDS011;5251;52.112;8.606;2023-11-21T13:32:55;7.78;;;5.03;;
10410;SDS011;5251;52.112;8.606;2023-11-21T13:35:26;6.72;;;4.72;;
10410;SDS011;5251;52.112;8.606;2023-11-21T13:37:57;7.80;;;4.97;;
10410;SDS011;5251;52.112;8.606;2023-11-21T13:40:36;5.93;;;4.40;;
10410;SDS011;5251;52.112;8.606;2023-11-21T13:43:10;5.75;;;4.82;;
10410;SDS011;5251;52.112;8.606;2023-11-21T13:45:37;6.35;;;4.63;;
10410;SDS011;5251;52.112;8.606;2023-11-21T13:48:07;5.03;;;4.18;;
10410;SDS011;5251;52.112;8.606;2023-11-21T13:50:41;6.00;;;4.65;;
10410;SDS011;5251;52.112;8.606;2023-11-21T13:53:22;6.07;;;4.38;;
10410;SDS011;5251;52.112;8.606;2023-11-21T13:55:49;5.28;;;4.75;;
10410;SDS011;5251;52.112;8.606;2023-11-21T13:58:22;5.40;;;4.63;;
10410;SDS011;5251;52.112;8.606;2023-11-21T14:00:57;6.45;;;4.88;;
10410;SDS011;5251;52.112;8.606;2023-11-21T14:03:23;6.85;;;4.70;;
10410;SDS011;5251;52.112;8.606;2023-11-21T14:05:57;8.10;;;7.05;;
10410;SDS011;5251;52.112;8.606;2023-11-21T14:08:25;6.35;;;4.75;;
10410;SDS011;5251;52.112;8.606;2023-11-21T14:10:56;5.95;;;4.40;;
10410;SDS011;5251;52.112;8.606;2023-11-21T14:13:25;5.30;;;4.45;;
10410;SDS011;5251;52.112;8.606;2023-11-21T14:15:52;7.38;;;5.00;;
10410;SDS011;5251;52.112;8.606;2023-11-21T14:18:24;6.80;;;5.55;;
10410;SDS011;5251;52.112;8.606;2023-11-21T14:21:01;6.25;;;4.72;;
10410;SDS011;5251;52.112;8.606;2023-11-21T14:23:26;7.10;;;5.35;;
10410;SDS011;5251;52.112;8.606;2023-11-21T14:25:53;6.28;;;5.15;;
10410;SDS011;5251;52.112;8.606;2023-11-21T14:28:19;6.28;;;5.40;;
10410;SDS011;5251;52.112;8.606;2023-11-21T14:30:47;6.38;;;4.97;;
10410;SDS011;5251;52.112;8.606;2023-11-21T14:33:13;6.05;;;4.97;;
10410;SDS011;5251;52.112;8.606;2023-11-21T14:35:41;6.18;;;4.80;;
10410;SDS011;5251;52.112;8.606;2023-11-21T14:38:07;5.50;;;4.80;;
10410;SDS011;5251;52.112;8.606;2023-11-21T14:40:34;8.05;;;4.80;;
10410;SDS011;5251;52.112;8.606;2023-11-21T14:43:01;6.68;;;5.22;;
10410;SDS011;5251;52.112;8.606;2023-11-21T14:45:30;6.28;;;4.88;;
10410;SDS011;5251;52.112;8.606;2023-11-21T14:47:56;7.05;;;5.15;;
10410;SDS011;5251;52.112;8.606;2023-11-21T14:50:28;6.22;;;5.13;;
10410;SDS011;5251;52.112;8.606;2023-11-21T14:53:09;6.38;;;5.22;;
10410;SDS011;5251;52.112;8.606;2023-11-21T14:55:37;6.85;;;5.20;;
10410;SDS011;5251;52.112;8.606;2023-11-21T14:58:15;5.72;;;5.13;;
10410;SDS011;5251;52.112;8.606;2023-11-21T15:00:49;6.15;;;5.10;;
10410;SDS011;5251;52.112;8.606;2023-11-21T15:03:17;7.93;;;5.35;;
10410;SDS011;5251;52.112;8.606;2023-11-21T15:06:01;5.05;;;4.38;;
10410;SDS011;5251;52.112;8.606;2023-11-21T15:08:45;6.10;;;5.10;;
10410;SDS011;5251;52.112;8.606;2023-11-21T15:11:22;5.55;;;4.90;;